createdAt,value
2024-04-21T00:02:19.435Z,83.80
2024-04-21T00:04:46.103Z,83.83
2024-04-21T00:07:12.718Z,83.47
2024-04-21T00:09:39.389Z,82.85
2024-04-21T00:12:06.355Z,82.90
2024-04-21T00:14:32.927Z,82.96
2024-04-21T00:17:05.607Z,82.78
2024-04-21T00:19:32.241Z,82.93
2024-04-21T00:21:58.890Z,82.98
2024-04-21T00:24:29.523Z,82.94
2024-04-21T00:27:06.249Z,83.19
2024-04-21T00:29:32.786Z,83.38
2024-04-21T00:32:02.627Z,83.35
2024-04-21T00:34:29.399Z,83.15
2024-04-21T00:36:56.023Z,83.42
2024-04-21T00:39:22.593Z,83.56
2024-04-21T00:41:49.173Z,83.71
2024-04-21T00:44:15.744Z,83.84
2024-04-21T00:46:42.346Z,84.20
2024-04-21T00:49:12.642Z,84.40
2024-04-21T00:51:39.492Z,83.98
2024-04-21T00:54:06.390Z,83.26
2024-04-21T00:56:33.378Z,82.93
2024-04-21T00:59:01.438Z,83.86
2024-04-21T01:01:28.170Z,83.91
2024-04-21T01:03:54.990Z,84.61
2024-04-21T01:06:21.690Z,84.45
2024-04-21T01:08:48.636Z,84.32
2024-04-21T01:11:27.340Z,83.75
2024-04-21T01:13:53.931Z,83.37
2024-04-21T01:16:23.804Z,83.19
2024-04-21T01:18:50.751Z,83.10
2024-04-21T01:21:17.448Z,82.85
2024-04-21T01:24:00.625Z,83.71
2024-04-21T01:26:30.739Z,82.87
2024-04-21T01:28:57.264Z,82.50
2024-04-21T01:31:30.154Z,82.38
2024-04-21T01:34:01.993Z,82.35
2024-04-21T01:36:39.360Z,81.75
2024-04-21T01:39:05.925Z,81.72
2024-04-21T01:41:32.534Z,81.84
2024-04-21T01:43:59.316Z,82.02
2024-04-21T01:46:25.852Z,82.29
2024-04-21T01:48:52.469Z,81.94
2024-04-21T01:51:19.101Z,81.99
2024-04-21T01:53:45.663Z,82.13
2024-04-21T01:56:12.202Z,81.83
2024-04-21T01:58:38.820Z,81.83
2024-04-21T02:01:05.485Z,82.22
2024-04-21T02:03:32.240Z,82.23
2024-04-21T02:06:07.770Z,81.70
2024-04-21T02:08:34.332Z,82.18
2024-04-21T02:11:00.952Z,81.77
2024-04-21T02:13:27.501Z,81.71
2024-04-21T02:15:54.590Z,81.70
2024-04-21T02:18:21.225Z,81.55
2024-04-21T02:20:47.801Z,81.64
2024-04-21T02:23:14.373Z,81.44
2024-04-21T02:25:40.916Z,81.56
2024-04-21T02:28:07.528Z,81.71
2024-04-21T02:30:34.133Z,81.78
2024-04-21T02:33:03.024Z,81.87
2024-04-21T02:35:29.703Z,81.87
2024-04-21T02:37:56.437Z,82.07
2024-04-21T02:40:23.291Z,82.03
2024-04-21T02:42:52.764Z,82.24
2024-04-21T02:45:24.994Z,82.58
2024-04-21T02:47:54.611Z,83.17
2024-04-21T02:50:23.791Z,83.46
2024-04-21T02:52:51.898Z,85.43
2024-04-21T02:55:22.110Z,86.67
2024-04-21T02:57:48.943Z,87.08
2024-04-21T03:00:15.601Z,88.03
2024-04-21T03:02:45.246Z,87.68
2024-04-21T03:05:11.827Z,87.70
2024-04-21T03:08:04.426Z,88.60
2024-04-21T03:10:31.325Z,88.88
2024-04-21T03:12:57.944Z,89.33
2024-04-21T03:15:24.556Z,88.84
2024-04-21T03:17:51.700Z,89.11
2024-04-21T03:20:18.340Z,88.83
2024-04-21T03:22:45.105Z,89.78
2024-04-21T03:25:11.751Z,89.86
2024-04-21T03:27:38.345Z,90.17
2024-04-21T03:30:05.554Z,90.73
2024-04-21T03:32:32.144Z,90.85
2024-04-21T03:34:58.821Z,90.74
2024-04-21T03:37:25.730Z,91.34
2024-04-21T03:39:57.558Z,91.51
2024-04-21T03:42:24.394Z,91.15
2024-04-21T03:44:51.090Z,91.56
2024-04-21T03:47:28.062Z,90.85
2024-04-21T03:50:19.758Z,91.86
2024-04-21T03:52:46.521Z,91.69
2024-04-21T03:55:16.280Z,90.85
2024-04-21T03:57:42.871Z,91.41
2024-04-21T04:00:10.000Z,92.14
2024-04-21T04:02:36.670Z,92.24
2024-04-21T04:05:03.395Z,92.79
2024-04-21T04:07:29.938Z,92.77
2024-04-21T04:09:56.434Z,93.11
2024-04-21T04:12:22.981Z,92.83
2024-04-21T04:14:50.173Z,92.78
2024-04-21T04:17:16.693Z,92.65
2024-04-21T04:19:43.261Z,92.53
2024-04-21T04:22:09.856Z,91.98
2024-04-21T04:24:36.469Z,91.32
2024-04-21T04:27:03.060Z,90.95
2024-04-21T04:29:29.611Z,91.15
2024-04-21T04:31:56.182Z,90.26
2024-04-21T04:34:22.741Z,91.10
2024-04-21T04:36:49.368Z,91.16
2024-04-21T04:39:15.911Z,90.78
2024-04-21T04:41:42.446Z,90.81
2024-04-21T04:44:08.971Z,91.24
2024-04-21T04:46:35.537Z,90.98
2024-04-21T04:49:02.134Z,91.09
2024-04-21T04:51:28.648Z,90.95
2024-04-21T04:53:55.197Z,91.33
2024-04-21T04:56:21.796Z,91.51
2024-04-21T04:58:48.343Z,91.71
2024-04-21T05:01:21.104Z,92.03
2024-04-21T05:03:47.861Z,92.24
2024-04-21T05:06:20.495Z,92.65
2024-04-21T05:08:50.136Z,92.61
2024-04-21T05:11:16.736Z,93.01
2024-04-21T05:13:43.237Z,92.81
2024-04-21T05:16:09.808Z,93.11
2024-04-21T05:18:36.432Z,93.28
2024-04-21T05:21:03.819Z,92.98
2024-04-21T05:23:32.225Z,93.34
2024-04-21T05:25:58.748Z,93.18
2024-04-21T05:28:36.686Z,93.54
2024-04-21T05:31:11.834Z,93.61
2024-04-21T05:33:38.792Z,93.70
2024-04-21T05:36:05.510Z,93.04
2024-04-21T05:38:32.069Z,93.40
2024-04-21T05:40:58.617Z,93.31
2024-04-21T05:43:25.179Z,93.63
2024-04-21T05:46:02.116Z,93.77
2024-04-21T05:48:28.717Z,93.73
2024-04-21T05:50:55.368Z,93.35
2024-04-21T05:53:22.078Z,93.50
2024-04-21T05:55:48.817Z,93.70
2024-04-21T05:58:15.409Z,94.14
2024-04-21T06:00:41.954Z,94.29
2024-04-21T06:03:08.934Z,94.29
2024-04-21T06:05:44.515Z,94.20
2024-04-21T06:08:11.111Z,94.13
2024-04-21T06:10:38.667Z,94.53
2024-04-21T06:13:08.725Z,93.97
2024-04-21T06:15:36.453Z,94.02
2024-04-21T06:18:03.198Z,93.65
2024-04-21T06:20:52.110Z,93.13
2024-04-21T06:23:17.207Z,93.24
2024-04-21T06:25:43.770Z,92.96
2024-04-21T06:28:10.820Z,92.47
2024-04-21T06:30:45.849Z,92.41
2024-04-21T06:33:18.615Z,91.87
2024-04-21T06:35:46.055Z,90.65
2024-04-21T06:38:12.712Z,91.18
2024-04-21T06:40:49.718Z,91.67
2024-04-21T06:43:16.425Z,91.59
2024-04-21T06:45:47.765Z,91.93
2024-04-21T06:48:15.182Z,91.53
2024-04-21T06:50:46.224Z,91.54
2024-04-21T06:53:12.802Z,91.75
2024-04-21T06:55:39.836Z,91.67
2024-04-21T06:58:06.478Z,91.38
2024-04-21T07:00:33.236Z,91.53
2024-04-21T07:03:00.961Z,91.44
2024-04-21T07:05:27.648Z,91.78
2024-04-21T07:07:54.198Z,91.91
2024-04-21T07:10:20.836Z,91.43
2024-04-21T07:12:47.412Z,91.76
2024-04-21T07:15:14.054Z,91.40
2024-04-21T07:17:40.720Z,90.87
2024-04-21T07:20:07.689Z,90.50
2024-04-21T07:22:39.242Z,90.62
2024-04-21T07:25:16.018Z,90.23
2024-04-21T07:27:46.335Z,90.30
2024-04-21T07:30:15.731Z,90.16
2024-04-21T07:32:42.347Z,89.43
2024-04-21T07:35:08.931Z,89.16
2024-04-21T07:37:35.787Z,89.34
2024-04-21T07:40:02.509Z,89.05
2024-04-21T07:42:29.156Z,89.08
2024-04-21T07:44:55.683Z,88.84
2024-04-21T07:47:22.638Z,88.87
2024-04-21T07:49:49.337Z,89.00
2024-04-21T07:52:15.939Z,89.02
2024-04-21T07:54:42.601Z,88.68
2024-04-21T07:57:12.473Z,88.21
2024-04-21T07:59:48.157Z,88.00
2024-04-21T08:02:14.796Z,87.89
2024-04-21T08:04:41.398Z,87.73
2024-04-21T08:07:08.129Z,86.93
2024-04-21T08:09:36.016Z,86.57
2024-04-21T08:12:03.241Z,86.43
2024-04-21T08:14:30.059Z,86.24
2024-04-21T08:16:58.100Z,86.15
2024-04-21T08:19:24.868Z,86.46
2024-04-21T08:21:51.531Z,86.03
2024-04-21T08:24:18.129Z,85.58
2024-04-21T08:26:59.809Z,85.22
2024-04-21T08:29:26.361Z,85.10
2024-04-21T08:31:56.544Z,84.91
2024-04-21T08:34:25.243Z,84.42
2024-04-21T08:36:51.952Z,83.28
2024-04-21T08:39:19.894Z,83.37
2024-04-21T08:41:48.332Z,82.24
2024-04-21T08:44:15.989Z,82.59
2024-04-21T08:46:43.659Z,82.25
2024-04-21T08:49:10.703Z,82.27
2024-04-21T08:51:40.094Z,81.72
2024-04-21T08:54:06.854Z,81.34
2024-04-21T08:56:34.067Z,80.91
2024-04-21T08:59:03.295Z,81.05
2024-04-21T09:01:30.393Z,80.58
2024-04-21T09:03:57.881Z,80.26
2024-04-21T09:06:26.746Z,79.26
2024-04-21T09:08:54.797Z,79.46
2024-04-21T09:11:21.867Z,79.47
2024-04-21T09:13:50.033Z,79.96
2024-04-21T09:16:16.818Z,79.15
2024-04-21T09:18:43.724Z,79.31
2024-04-21T09:21:10.431Z,78.58
2024-04-21T09:23:38.052Z,77.98
2024-04-21T09:26:04.645Z,78.06
2024-04-21T09:28:31.387Z,78.10
2024-04-21T09:30:58.325Z,77.69
2024-04-21T09:33:26.782Z,78.38
2024-04-21T09:35:58.586Z,77.96
2024-04-21T09:38:25.191Z,77.86
2024-04-21T09:40:56.212Z,76.73
2024-04-21T09:43:23.619Z,76.38
2024-04-21T09:45:52.039Z,76.25
2024-04-21T09:48:22.780Z,76.63
2024-04-21T09:50:50.601Z,75.29
2024-04-21T09:53:23.786Z,74.49
2024-04-21T09:56:02.943Z,74.48
2024-04-21T09:58:33.918Z,73.62
2024-04-21T10:01:03.073Z,74.10
2024-04-21T10:03:35.771Z,72.55
2024-04-21T10:06:03.334Z,72.31
2024-04-21T10:08:30.081Z,71.97
2024-04-21T10:10:56.838Z,72.85
2024-04-21T10:13:23.815Z,72.57
2024-04-21T10:15:51.369Z,73.11
2024-04-21T10:18:25.011Z,70.96
2024-04-21T10:20:52.482Z,70.36
2024-04-21T10:23:21.089Z,70.37
2024-04-21T10:25:48.695Z,70.43
2024-04-21T10:28:26.817Z,71.79
2024-04-21T10:31:06.654Z,69.43
2024-04-21T10:33:33.706Z,67.40
2024-04-21T10:36:00.313Z,67.66
2024-04-21T10:38:26.926Z,66.89
2024-04-21T10:40:57.663Z,67.17
2024-04-21T10:43:30.418Z,66.24
2024-04-21T10:45:59.885Z,65.23
2024-04-21T10:48:27.042Z,65.75
2024-04-21T10:50:54.468Z,64.91
2024-04-21T10:53:21.239Z,65.40
2024-04-21T10:55:51.017Z,63.43
2024-04-21T10:58:20.598Z,63.53
2024-04-21T11:00:47.204Z,64.28
2024-04-21T11:03:14.009Z,63.15
2024-04-21T11:06:01.734Z,63.25
2024-04-21T11:08:31.650Z,62.36
2024-04-21T11:10:59.116Z,63.70
2024-04-21T11:13:26.941Z,63.95
2024-04-21T11:15:53.703Z,64.30
2024-04-21T11:18:20.695Z,64.93
2024-04-21T11:20:47.696Z,64.51
2024-04-21T11:23:17.215Z,64.37
2024-04-21T11:25:53.765Z,63.90
2024-04-21T11:28:24.079Z,63.76
2024-04-21T11:31:04.691Z,63.91
2024-04-21T11:33:35.626Z,63.38
2024-04-21T11:36:09.246Z,64.68
2024-04-21T11:38:36.977Z,65.54
2024-04-21T11:41:03.941Z,62.12
2024-04-21T11:43:30.884Z,62.29
2024-04-21T11:48:52.513Z,62.62
2024-04-21T11:51:20.830Z,62.57
2024-04-21T11:53:49.083Z,62.94
2024-04-21T11:56:15.625Z,63.98
2024-04-21T11:58:42.177Z,63.40
2024-04-21T12:01:09.020Z,63.19
2024-04-21T12:03:47.999Z,62.70
2024-04-21T12:06:15.400Z,62.16
2024-04-21T12:08:41.917Z,62.65
2024-04-21T12:11:10.001Z,63.06
2024-04-21T12:13:38.037Z,62.63
2024-04-21T12:16:05.114Z,61.55
2024-04-21T12:18:31.681Z,60.56
2024-04-21T12:20:58.596Z,59.03
2024-04-21T12:23:25.138Z,58.73
2024-04-21T12:25:56.432Z,58.95
2024-04-21T12:28:23.082Z,59.17
2024-04-21T12:30:50.084Z,59.05
2024-04-21T12:33:16.642Z,58.99
2024-04-21T12:35:43.742Z,60.14
2024-04-21T12:38:10.372Z,59.41
2024-04-21T12:40:37.078Z,58.50
2024-04-21T12:43:03.813Z,58.53
2024-04-21T12:45:36.424Z,58.33
2024-04-21T12:48:03.308Z,59.24
2024-04-21T12:50:30.069Z,59.75
2024-04-21T12:52:56.662Z,59.75
2024-04-21T12:55:23.327Z,59.25
2024-04-21T12:57:49.983Z,57.00
2024-04-21T13:00:16.674Z,56.81
2024-04-21T13:02:43.234Z,58.13
2024-04-21T13:05:10.029Z,58.09
2024-04-21T13:07:36.733Z,58.50
2024-04-21T13:10:03.434Z,58.30
2024-04-21T13:12:30.671Z,57.91
2024-04-21T13:14:57.498Z,57.82
2024-04-21T13:17:24.145Z,57.55
2024-04-21T13:19:50.785Z,56.44
2024-04-21T13:22:17.416Z,56.69
2024-04-21T13:24:51.452Z,57.82
2024-04-21T13:27:18.117Z,58.60
2024-04-21T13:29:46.171Z,58.97
2024-04-21T13:32:12.896Z,60.70
2024-04-21T13:34:48.631Z,59.63
2024-04-21T13:37:15.173Z,60.03
2024-04-21T13:39:41.737Z,60.08
2024-04-21T13:42:08.364Z,60.42
2024-04-21T13:44:42.474Z,62.23
2024-04-21T13:47:09.044Z,65.08
2024-04-21T13:49:35.934Z,66.93
2024-04-21T13:52:02.676Z,67.42
2024-04-21T13:54:29.226Z,67.83
2024-04-21T13:56:55.887Z,68.50
2024-04-21T13:59:22.414Z,68.39
2024-04-21T14:01:50.011Z,69.35
2024-04-21T14:04:16.705Z,69.15
2024-04-21T14:06:43.277Z,69.69
2024-04-21T14:09:09.898Z,69.33
2024-04-21T14:11:36.523Z,70.04
2024-04-21T14:14:03.069Z,69.38
2024-04-21T14:16:31.445Z,70.07
2024-04-21T14:18:58.916Z,69.86
2024-04-21T14:21:26.727Z,69.96
2024-04-21T14:23:53.353Z,69.96
2024-04-21T14:26:20.092Z,69.07
2024-04-21T14:28:47.259Z,68.62
2024-04-21T14:31:14.092Z,67.92
2024-04-21T14:33:42.997Z,67.08
2024-04-21T14:36:09.761Z,67.21
2024-04-21T14:38:36.446Z,66.91
2024-04-21T14:41:05.700Z,65.73
2024-04-21T14:43:33.817Z,65.88
2024-04-21T14:46:00.346Z,66.42
2024-04-21T14:48:27.173Z,65.73
2024-04-21T14:51:01.854Z,65.19
2024-04-21T14:53:31.574Z,65.64
2024-04-21T14:56:04.959Z,64.88
2024-04-21T14:58:31.577Z,65.43
2024-04-21T15:00:58.321Z,65.12
2024-04-21T15:03:25.286Z,65.02
2024-04-21T15:05:51.994Z,65.18
2024-04-21T15:08:18.595Z,65.44
2024-04-21T15:10:45.389Z,65.31
2024-04-21T15:13:12.340Z,66.07
2024-04-21T15:15:38.931Z,66.65
2024-04-21T15:18:05.746Z,66.88
2024-04-21T15:20:32.305Z,66.93
2024-04-21T15:23:01.393Z,68.01
2024-04-21T15:25:28.154Z,67.77
2024-04-21T15:27:54.982Z,67.87
2024-04-21T15:30:21.748Z,67.36
2024-04-21T15:32:48.770Z,69.57
2024-04-21T15:35:15.801Z,69.70
2024-04-21T15:37:43.221Z,71.03
2024-04-21T15:40:10.836Z,70.73
2024-04-21T15:42:39.604Z,71.15
2024-04-21T15:45:06.509Z,70.58
2024-04-21T15:47:33.098Z,71.47
2024-04-21T15:50:02.998Z,72.28
2024-04-21T15:52:30.521Z,73.09
2024-04-21T15:54:57.379Z,74.11
2024-04-21T15:57:24.242Z,75.39
2024-04-21T15:59:50.794Z,75.64
2024-04-21T16:02:18.594Z,76.13
2024-04-21T16:04:45.573Z,77.07
2024-04-21T16:07:14.652Z,77.66
2024-04-21T16:09:44.359Z,77.68
2024-04-21T16:12:10.910Z,77.42
2024-04-21T16:14:37.455Z,77.39
2024-04-21T16:17:04.197Z,77.81
2024-04-21T16:19:30.929Z,77.18
2024-04-21T16:21:57.680Z,78.13
2024-04-21T16:24:24.278Z,78.96
2024-04-21T16:26:50.834Z,78.57
2024-04-21T16:29:17.401Z,77.45
2024-04-21T16:31:45.966Z,77.67
2024-04-21T16:34:13.047Z,78.46
2024-04-21T16:36:40.076Z,78.37
2024-04-21T16:39:07.221Z,77.95
2024-04-21T16:41:34.163Z,78.87
2024-04-21T16:44:01.110Z,78.46
2024-04-21T16:47:00.830Z,77.76
2024-04-21T16:49:31.011Z,76.99
2024-04-21T16:52:09.855Z,77.42
2024-04-21T16:54:37.108Z,78.34
2024-04-21T16:57:18.053Z,78.29
2024-04-21T16:59:48.301Z,79.57
2024-04-21T17:02:15.258Z,79.16
2024-04-21T17:04:51.780Z,78.98
2024-04-21T17:07:18.963Z,79.34
2024-04-21T17:09:49.258Z,80.11
2024-04-21T17:12:20.967Z,79.84
2024-04-21T17:14:47.693Z,80.62
2024-04-21T17:17:16.865Z,80.88
2024-04-21T17:19:43.425Z,80.85
2024-04-21T17:22:10.288Z,80.84
2024-04-21T17:24:37.062Z,81.05
2024-04-21T17:27:04.088Z,81.09
2024-04-21T17:29:30.587Z,80.42
2024-04-21T17:31:57.155Z,80.37
2024-04-21T17:34:24.896Z,79.68
2024-04-21T17:36:51.581Z,80.26
2024-04-21T17:39:18.187Z,80.06
2024-04-21T17:41:44.726Z,80.02
2024-04-21T17:44:11.287Z,79.83
2024-04-21T17:46:38.275Z,79.34
2024-04-21T17:49:05.036Z,79.87
2024-04-21T17:51:37.766Z,79.86
2024-04-21T17:54:05.922Z,79.63
2024-04-21T17:56:34.496Z,79.66
2024-04-21T18:01:32.560Z,80.05
2024-04-21T18:04:01.166Z,80.02
2024-04-21T18:06:29.871Z,80.46
2024-04-21T18:08:56.495Z,80.29
2024-04-21T18:14:07.153Z,80.17
2024-04-21T18:16:42.923Z,79.94
2024-04-21T18:19:09.455Z,79.89
2024-04-21T18:21:40.822Z,79.16
2024-04-21T18:24:07.539Z,79.24
2024-04-21T18:26:36.632Z,78.68
2024-04-21T18:29:03.145Z,78.27
2024-04-21T18:31:29.754Z,78.01
2024-04-21T18:33:56.354Z,78.10
2024-04-21T18:36:23.101Z,78.62
2024-04-21T18:38:52.190Z,78.68
2024-04-21T18:41:22.078Z,78.57
2024-04-21T18:43:48.834Z,78.47
2024-04-21T18:46:18.110Z,78.55
2024-04-21T18:48:44.712Z,78.89
2024-04-21T18:51:11.289Z,79.10
2024-04-21T18:53:37.822Z,78.40
2024-04-21T18:56:15.282Z,78.50
2024-04-21T18:58:42.065Z,78.13
2024-04-21T19:01:09.565Z,77.74
2024-04-21T19:03:36.327Z,77.82
2024-04-21T19:06:09.524Z,77.90
2024-04-21T19:08:36.142Z,78.29
2024-04-21T19:11:03.091Z,77.86
2024-04-21T19:13:30.182Z,78.05
2024-04-21T19:16:01.698Z,77.96
2024-04-21T19:18:28.878Z,77.97
2024-04-21T19:20:55.804Z,78.59
2024-04-21T19:23:23.346Z,78.81
2024-04-21T19:25:50.153Z,78.59
2024-04-21T19:28:17.038Z,78.60
2024-04-21T19:30:43.740Z,78.19
2024-04-21T19:33:11.512Z,78.58
2024-04-21T19:38:20.172Z,78.66
2024-04-21T19:40:49.347Z,79.05
2024-04-21T19:43:17.326Z,79.15
2024-04-21T19:45:44.018Z,79.42
2024-04-21T19:48:11.589Z,79.62
2024-04-21T19:50:39.319Z,79.50
2024-04-21T19:53:05.944Z,79.73
2024-04-21T19:55:32.681Z,79.91
2024-04-21T19:58:11.555Z,80.11
2024-04-21T20:00:46.814Z,80.25
2024-04-21T20:03:13.904Z,80.39
2024-04-21T20:05:41.037Z,80.41
2024-04-21T20:08:17.636Z,80.67
2024-04-21T20:10:44.212Z,80.72
2024-04-21T20:13:11.074Z,81.05
2024-04-21T20:15:56.522Z,81.07
2024-04-21T20:18:36.266Z,81.49
2024-04-21T20:21:04.121Z,80.94
2024-04-21T20:23:31.720Z,81.32
2024-04-21T20:26:00.639Z,81.40
2024-04-21T20:28:27.509Z,81.55
2024-04-21T20:30:58.521Z,81.44
2024-04-21T20:33:32.016Z,81.81
2024-04-21T20:35:58.600Z,81.91
2024-04-21T20:38:34.113Z,81.75
2024-04-21T20:41:00.905Z,81.56
2024-04-21T20:43:27.651Z,81.71
2024-04-21T20:45:54.222Z,81.83
2024-04-21T20:48:20.802Z,81.71
2024-04-21T20:50:47.799Z,82.11
2024-04-21T20:53:14.350Z,81.94
2024-04-21T20:55:42.641Z,82.09
2024-04-21T20:58:09.517Z,81.89
2024-04-21T21:00:37.876Z,81.99
2024-04-21T21:03:04.643Z,81.45
2024-04-21T21:05:31.137Z,81.65
2024-04-21T21:07:57.686Z,81.85
2024-04-21T21:10:24.343Z,81.67
2024-04-21T21:12:50.918Z,81.76
2024-04-21T21:15:17.436Z,82.08
2024-04-21T21:17:44.052Z,82.05
2024-04-21T21:20:10.937Z,82.28
2024-04-21T21:22:37.543Z,82.21
2024-04-21T21:25:04.650Z,82.21
2024-04-21T21:27:31.364Z,82.28
2024-04-21T21:29:57.936Z,81.70
2024-04-21T21:32:24.608Z,82.33
2024-04-21T21:34:51.260Z,82.11
2024-04-21T21:37:17.940Z,82.39
2024-04-21T21:39:48.210Z,82.20
2024-04-21T21:42:14.794Z,82.35
2024-04-21T21:44:41.806Z,82.65
2024-04-21T21:47:08.567Z,82.46
2024-04-21T21:49:35.193Z,83.05
2024-04-21T21:52:02.045Z,82.70
2024-04-21T21:54:28.751Z,82.96
2024-04-21T21:56:55.979Z,82.70
2024-04-21T21:59:23.838Z,83.13
2024-04-21T22:01:50.667Z,83.17
2024-04-21T22:04:17.355Z,83.20
2024-04-21T22:06:43.881Z,82.95
2024-04-21T22:09:10.438Z,83.35
2024-04-21T22:11:37.254Z,83.41
2024-04-21T22:14:06.662Z,83.01
2024-04-21T22:16:35.900Z,82.87
2024-04-21T22:19:05.692Z,83.16
2024-04-21T22:21:32.450Z,82.99
2024-04-21T22:23:59.180Z,83.12
2024-04-21T22:26:26.846Z,83.46
2024-04-21T22:28:54.195Z,83.42
2024-04-21T22:31:20.763Z,83.60
2024-04-21T22:33:47.378Z,83.39
2024-04-21T22:36:13.992Z,83.93
2024-04-21T22:38:41.053Z,84.04
2024-04-21T22:41:07.663Z,84.03
2024-04-21T22:43:34.329Z,84.06
2024-04-21T22:46:09.192Z,84.10
2024-04-21T22:48:37.997Z,83.78
2024-04-21T22:51:06.467Z,83.95
2024-04-21T22:53:33.077Z,84.10
2024-04-21T22:56:05.792Z,83.77
2024-04-21T22:58:41.331Z,83.99
2024-04-21T23:01:08.321Z,84.28
2024-04-21T23:03:36.690Z,83.88
2024-04-21T23:06:03.723Z,83.99
2024-04-21T23:08:32.782Z,84.24
2024-04-21T23:11:03.858Z,83.96
2024-04-21T23:13:30.840Z,84.10
2024-04-21T23:15:57.799Z,84.25
2024-04-21T23:18:24.403Z,84.22
2024-04-21T23:20:51.202Z,84.34
2024-04-21T23:23:17.843Z,84.53
2024-04-21T23:25:44.482Z,84.66
2024-04-21T23:28:11.309Z,85.14
2024-04-21T23:30:37.923Z,85.16
2024-04-21T23:33:04.768Z,85.15
2024-04-21T23:35:31.376Z,85.18
2024-04-21T23:37:57.929Z,84.99
2024-04-21T23:40:27.001Z,85.29
2024-04-21T23:42:53.546Z,85.05
2024-04-21T23:45:20.109Z,85.55
2024-04-21T23:47:46.705Z,85.23
2024-04-21T23:50:13.697Z,85.33
2024-04-21T23:52:40.260Z,85.49
2024-04-21T23:55:07.286Z,85.69
2024-04-21T23:57:33.962Z,85.61
